sensor_id;sensor_type;location;lat;lon;timestamp;pressure;altitude;pressure_sealevel;temperature;humidity
52923;BME280;38796;42.702;23.306;2022-12-08T00:00:21;95100.16;;;2.13;100.00
52923;BME280;38796;42.702;23.306;2022-12-08T00:02:19;95102.09;;;2.10;100.00
52923;BME280;38796;42.702;23.306;2022-12-08T00:04:17;95109.47;;;2.02;100.00
52923;BME280;38796;42.702;23.306;2022-12-08T00:06:20;95112.44;;;1.96;100.00
52923;BME280;38796;42.702;23.306;2022-12-08T00:08:37;95119.56;;;1.92;100.00
52923;BME280;38796;42.702;23.306;2022-12-08T00:10:53;95126.00;;;1.85;100.00
52923;BME280;38796;42.702;23.306;2022-12-08T00:12:51;95121.25;;;1.77;100.00
52923;BME280;38796;42.702;23.306;2022-12-08T00:14:49;95118.72;;;1.76;100.00
52923;BME280;38796;42.702;23.306;2022-12-08T00:16:47;95116.06;;;1.77;100.00
52923;BME280;38796;42.702;23.306;2022-12-08T00:18:45;95121.56;;;1.87;100.00
52923;BME280;38796;42.702;23.306;2022-12-08T00:20:43;95132.59;;;1.90;100.00
52923;BME280;38796;42.702;23.306;2022-12-08T00:22:41;95134.31;;;1.91;100.00
52923;BME280;38796;42.702;23.306;2022-12-08T00:24:40;95120.66;;;1.88;100.00
52923;BME280;38796;42.702;23.306;2022-12-08T00:26:40;95132.19;;;1.82;100.00
52923;BME280;38796;42.702;23.306;2022-12-08T00:28:38;95128.59;;;1.85;100.00
52923;BME280;38796;42.702;23.306;2022-12-08T00:30:38;95130.44;;;1.99;100.00
52923;BME280;38796;42.702;23.306;2022-12-08T00:32:36;95131.59;;;1.93;100.00
52923;BME280;38796;42.702;23.306;2022-12-08T00:34:34;95134.53;;;1.87;100.00
52923;BME280;38796;42.702;23.306;2022-12-08T00:36:32;95143.41;;;1.83;100.00
52923;BME280;38796;42.702;23.306;2022-12-08T00:38:30;95145.34;;;1.79;100.00
52923;BME280;38796;42.702;23.306;2022-12-08T00:40:30;95141.50;;;1.71;100.00
52923;BME280;38796;42.702;23.306;2022-12-08T00:42:28;95151.06;;;1.70;100.00
52923;BME280;38796;42.702;23.306;2022-12-08T00:44:26;95156.41;;;1.67;100.00
52923;BME280;38796;42.702;23.306;2022-12-08T00:46:24;95144.16;;;1.69;100.00
52923;BME280;38796;42.702;23.306;2022-12-08T00:48:22;95152.06;;;1.67;100.00
52923;BME280;38796;42.702;23.306;2022-12-08T00:50:20;95144.69;;;1.76;100.00
52923;BME280;38796;42.702;23.306;2022-12-08T00:52:18;95146.28;;;1.78;100.00
52923;BME280;38796;42.702;23.306;2022-12-08T00:54:16;95149.88;;;1.76;100.00
52923;BME280;38796;42.702;23.306;2022-12-08T00:56:16;95143.00;;;1.75;100.00
52923;BME280;38796;42.702;23.306;2022-12-08T00:58:14;95145.44;;;1.78;100.00
52923;BME280;38796;42.702;23.306;2022-12-08T01:00:12;95146.19;;;1.80;100.00
52923;BME280;38796;42.702;23.306;2022-12-08T01:02:10;95142.59;;;1.82;100.00
52923;BME280;38796;42.702;23.306;2022-12-08T01:04:09;95137.28;;;1.84;100.00
52923;BME280;38796;42.702;23.306;2022-12-08T01:06:08;95131.28;;;1.99;100.00
52923;BME280;38796;42.702;23.306;2022-12-08T01:08:07;95129.56;;;2.14;100.00
52923;BME280;38796;42.702;23.306;2022-12-08T01:10:06;95138.28;;;2.13;100.00
52923;BME280;38796;42.702;23.306;2022-12-08T01:12:06;95139.38;;;2.09;100.00
52923;BME280;38796;42.702;23.306;2022-12-08T01:14:04;95133.44;;;2.07;100.00
52923;BME280;38796;42.702;23.306;2022-12-08T01:16:02;95131.00;;;2.04;100.00
52923;BME280;38796;42.702;23.306;2022-12-08T01:18:00;95134.03;;;1.96;100.00
52923;BME280;38796;42.702;23.306;2022-12-08T01:19:59;95134.31;;;1.91;100.00
52923;BME280;38796;42.702;23.306;2022-12-08T01:21:58;95134.09;;;1.95;100.00
52923;BME280;38796;42.702;23.306;2022-12-08T01:23:57;95131.50;;;1.95;100.00
52923;BME280;38796;42.702;23.306;2022-12-08T01:25:59;95133.94;;;1.98;100.00
52923;BME280;38796;42.702;23.306;2022-12-08T01:27:59;95128.00;;;1.96;100.00
52923;BME280;38796;42.702;23.306;2022-12-08T01:29:57;95125.59;;;1.92;100.00
52923;BME280;38796;42.702;23.306;2022-12-08T01:31:55;95126.59;;;1.90;100.00
52923;BME280;38796;42.702;23.306;2022-12-08T01:33:53;95123.41;;;1.85;100.00
52923;BME280;38796;42.702;23.306;2022-12-08T01:35:51;95112.88;;;1.88;100.00
52923;BME280;38796;42.702;23.306;2022-12-08T01:37:49;95113.69;;;1.88;100.00
52923;BME280;38796;42.702;23.306;2022-12-08T01:39:47;95117.38;;;1.84;100.00
52923;BME280;38796;42.702;23.306;2022-12-08T01:41:45;95119.88;;;1.86;100.00
52923;BME280;38796;42.702;23.306;2022-12-08T01:43:55;95109.84;;;1.96;100.00
52923;BME280;38796;42.702;23.306;2022-12-08T01:45:53;95117.53;;;1.97;100.00
52923;BME280;38796;42.702;23.306;2022-12-08T01:47:52;95115.59;;;2.01;100.00
52923;BME280;38796;42.702;23.306;2022-12-08T01:49:53;95113.00;;;2.01;100.00
52923;BME280;38796;42.702;23.306;2022-12-08T01:51:51;95115.44;;;2.04;100.00
52923;BME280;38796;42.702;23.306;2022-12-08T01:54:38;95104.53;;;2.13;100.00
52923;BME280;38796;42.702;23.306;2022-12-08T01:56:39;95094.47;;;2.07;100.00
52923;BME280;38796;42.702;23.306;2022-12-08T01:58:42;95108.19;;;2.09;100.00
52923;BME280;38796;42.702;23.306;2022-12-08T02:00:43;95096.25;;;2.06;100.00
52923;BME280;38796;42.702;23.306;2022-12-08T02:02:45;95089.56;;;2.02;100.00
52923;BME280;38796;42.702;23.306;2022-12-08T02:04:44;95098.03;;;1.90;100.00
52923;BME280;38796;42.702;23.306;2022-12-08T02:06:42;95100.78;;;1.87;100.00
52923;BME280;38796;42.702;23.306;2022-12-08T02:08:41;95108.41;;;1.90;100.00
52923;BME280;38796;42.702;23.306;2022-12-08T02:10:52;95104.66;;;1.80;100.00
52923;BME280;38796;42.702;23.306;2022-12-08T02:12:55;95112.03;;;1.72;100.00
52923;BME280;38796;42.702;23.306;2022-12-08T02:14:54;95101.97;;;1.65;100.00
52923;BME280;38796;42.702;23.306;2022-12-08T02:17:08;95106.16;;;1.68;100.00
52923;BME280;38796;42.702;23.306;2022-12-08T02:19:24;95101.41;;;1.60;100.00
52923;BME280;38796;42.702;23.306;2022-12-08T02:21:29;95094.38;;;1.62;100.00
52923;BME280;38796;42.702;23.306;2022-12-08T02:23:39;95096.38;;;1.57;100.00
52923;BME280;38796;42.702;23.306;2022-12-08T02:25:47;95093.28;;;1.51;100.00
52923;BME280;38796;42.702;23.306;2022-12-08T02:27:55;95097.56;;;1.52;100.00
52923;BME280;38796;42.702;23.306;2022-12-08T02:32:20;95091.63;;;1.50;100.00
52923;BME280;38796;42.702;23.306;2022-12-08T02:34:23;95106.91;;;1.54;100.00
52923;BME280;38796;42.702;23.306;2022-12-08T02:36:30;95099.75;;;1.59;100.00
52923;BME280;38796;42.702;23.306;2022-12-08T02:38:37;95103.50;;;1.70;100.00
52923;BME280;38796;42.702;23.306;2022-12-08T02:40:41;95092.94;;;1.73;100.00
52923;BME280;38796;42.702;23.306;2022-12-08T02:42:42;95097.03;;;1.61;100.00
52923;BME280;38796;42.702;23.306;2022-12-08T02:44:45;95100.91;;;1.54;100.00
52923;BME280;38796;42.702;23.306;2022-12-08T02:46:46;95089.03;;;1.50;100.00
52923;BME280;38796;42.702;23.306;2022-12-08T02:48:45;95091.28;;;1.40;100.00
52923;BME280;38796;42.702;23.306;2022-12-08T02:50:44;95084.56;;;1.36;100.00
52923;BME280;38796;42.702;23.306;2022-12-08T02:52:43;95088.09;;;1.35;100.00
52923;BME280;38796;42.702;23.306;2022-12-08T02:54:42;95092.63;;;1.31;100.00
52923;BME280;38796;42.702;23.306;2022-12-08T02:57:02;95082.06;;;1.34;100.00
52923;BME280;38796;42.702;23.306;2022-12-08T02:59:21;95096.03;;;1.32;100.00
52923;BME280;38796;42.702;23.306;2022-12-08T03:01:28;95096.31;;;1.27;100.00
52923;BME280;38796;42.702;23.306;2022-12-08T03:03:33;95096.47;;;1.24;100.00
52923;BME280;38796;42.702;23.306;2022-12-08T03:05:37;95096.78;;;1.18;100.00
52923;BME280;38796;42.702;23.306;2022-12-08T03:07:41;95094.59;;;1.10;100.00
52923;BME280;38796;42.702;23.306;2022-12-08T03:09:44;95093.44;;;1.16;100.00
52923;BME280;38796;42.702;23.306;2022-12-08T03:11:43;95090.75;;;1.17;100.00
52923;BME280;38796;42.702;23.306;2022-12-08T03:13:45;95087.50;;;1.14;100.00
52923;BME280;38796;42.702;23.306;2022-12-08T03:15:44;95098.19;;;1.08;100.00
52923;BME280;38796;42.702;23.306;2022-12-08T03:17:44;95091.50;;;1.04;100.00
52923;BME280;38796;42.702;23.306;2022-12-08T03:19:44;95089.50;;;1.09;100.00
52923;BME280;38796;42.702;23.306;2022-12-08T03:21:43;95082.25;;;1.15;100.00
52923;BME280;38796;42.702;23.306;2022-12-08T03:23:43;95083.41;;;1.10;100.00
52923;BME280;38796;42.702;23.306;2022-12-08T03:25:45;95090.25;;;1.11;100.00
52923;BME280;38796;42.702;23.306;2022-12-08T03:27:45;95095.78;;;1.20;100.00
52923;BME280;38796;42.702;23.306;2022-12-08T03:29:43;95098.44;;;1.19;100.00
52923;BME280;38796;42.702;23.306;2022-12-08T03:31:43;95097.81;;;1.31;100.00
52923;BME280;38796;42.702;23.306;2022-12-08T03:33:42;95097.97;;;1.28;100.00
52923;BME280;38796;42.702;23.306;2022-12-08T03:35:42;95097.97;;;1.28;100.00
52923;BME280;38796;42.702;23.306;2022-12-08T03:37:40;95098.91;;;1.27;100.00
52923;BME280;38796;42.702;23.306;2022-12-08T03:39:40;95093.09;;;1.22;100.00
52923;BME280;38796;42.702;23.306;2022-12-08T03:41:38;95100.97;;;1.20;100.00
52923;BME280;38796;42.702;23.306;2022-12-08T03:43:36;95098.44;;;1.19;100.00
52923;BME280;38796;42.702;23.306;2022-12-08T03:45:34;95098.44;;;1.19;100.00
52923;BME280;38796;42.702;23.306;2022-12-08T03:47:32;95091.28;;;1.24;100.00
52923;BME280;38796;42.702;23.306;2022-12-08T03:49:30;95103.31;;;1.25;100.00
52923;BME280;38796;42.702;23.306;2022-12-08T03:51:28;95102.06;;;1.32;100.00
52923;BME280;38796;42.702;23.306;2022-12-08T03:53:26;95098.78;;;1.29;100.00
52923;BME280;38796;42.702;23.306;2022-12-08T03:55:25;95102.47;;;1.25;100.00
52923;BME280;38796;42.702;23.306;2022-12-08T03:57:23;95106.06;;;1.22;100.00
52923;BME280;38796;42.702;23.306;2022-12-08T03:59:21;95106.06;;;1.22;100.00
52923;BME280;38796;42.702;23.306;2022-12-08T04:01:19;95110.41;;;1.22;100.00
52923;BME280;38796;42.702;23.306;2022-12-08T04:03:18;95104.31;;;1.23;100.00
52923;BME280;38796;42.702;23.306;2022-12-08T04:05:16;95101.97;;;1.18;100.00
52923;BME280;38796;42.702;23.306;2022-12-08T04:07:14;95109.69;;;1.19;100.00
52923;BME280;38796;42.702;23.306;2022-12-08T04:09:12;95105.50;;;1.17;100.00
52923;BME280;38796;42.702;23.306;2022-12-08T04:11:12;95105.31;;;1.20;100.00
52923;BME280;38796;42.702;23.306;2022-12-08T04:13:10;95111.34;;;1.20;100.00
52923;BME280;38796;42.702;23.306;2022-12-08T04:15:08;95111.59;;;1.16;100.00
52923;BME280;38796;42.702;23.306;2022-12-08T04:17:07;95116.03;;;1.14;100.00
52923;BME280;38796;42.702;23.306;2022-12-08T04:19:04;95104.81;;;1.13;100.00
52923;BME280;38796;42.702;23.306;2022-12-08T04:21:03;95105.41;;;1.18;100.00
52923;BME280;38796;42.702;23.306;2022-12-08T04:23:01;95103.56;;;1.20;100.00
52923;BME280;38796;42.702;23.306;2022-12-08T04:24:59;95112.09;;;1.23;100.00
52923;BME280;38796;42.702;23.306;2022-12-08T04:26:58;95107.81;;;1.22;100.00
52923;BME280;38796;42.702;23.306;2022-12-08T04:28:56;95116.59;;;1.19;100.00
52923;BME280;38796;42.702;23.306;2022-12-08T04:30:54;95111.94;;;1.26;100.00
52923;BME280;38796;42.702;23.306;2022-12-08T04:32:52;95114.63;;;1.24;100.00
52923;BME280;38796;42.702;23.306;2022-12-08T04:34:50;95114.53;;;1.26;100.00
52923;BME280;38796;42.702;23.306;2022-12-08T04:36:48;95109.53;;;1.38;100.00
52923;BME280;38796;42.702;23.306;2022-12-08T04:38:46;95110.25;;;1.40;100.00
52923;BME280;38796;42.702;23.306;2022-12-08T04:40:44;95122.09;;;1.46;100.00
52923;BME280;38796;42.702;23.306;2022-12-08T04:42:44;95121.16;;;1.47;100.00
52923;BME280;38796;42.702;23.306;2022-12-08T04:44:42;95112.22;;;1.53;100.00
52923;BME280;38796;42.702;23.306;2022-12-08T04:46:40;95104.25;;;1.56;100.00
52923;BME280;38796;42.702;23.306;2022-12-08T04:48:39;95110.03;;;1.61;100.00
52923;BME280;38796;42.702;23.306;2022-12-08T04:50:38;95123.00;;;1.61;100.00
52923;BME280;38796;42.702;23.306;2022-12-08T04:52:36;95134.56;;;1.55;100.00
52923;BME280;38796;42.702;23.306;2022-12-08T04:54:34;95122.44;;;1.56;100.00
52923;BME280;38796;42.702;23.306;2022-12-08T04:56:32;95122.06;;;1.62;100.00
52923;BME280;38796;42.702;23.306;2022-12-08T04:58:32;95116.47;;;1.54;100.00
52923;BME280;38796;42.702;23.306;2022-12-08T05:00:30;95118.22;;;1.53;100.00
52923;BME280;38796;42.702;23.306;2022-12-08T05:02:28;95123.25;;;1.56;100.00
52923;BME280;38796;42.702;23.306;2022-12-08T05:04:26;95123.25;;;1.56;100.00
52923;BME280;38796;42.702;23.306;2022-12-08T05:06:24;95126.13;;;1.52;100.00
52923;BME280;38796;42.702;23.306;2022-12-08T05:08:22;95122.34;;;1.57;100.00
52923;BME280;38796;42.702;23.306;2022-12-08T05:10:20;95137.06;;;1.57;100.00
52923;BME280;38796;42.702;23.306;2022-12-08T05:12:18;95143.25;;;1.54;100.00
52923;BME280;38796;42.702;23.306;2022-12-08T05:14:18;95143.34;;;1.53;100.00
52923;BME280;38796;42.702;23.306;2022-12-08T05:16:16;95131.88;;;1.57;100.00
52923;BME280;38796;42.702;23.306;2022-12-08T05:18:14;95134.63;;;1.54;100.00
52923;BME280;38796;42.702;23.306;2022-12-08T05:20:12;95138.22;;;1.51;100.00
52923;BME280;38796;42.702;23.306;2022-12-08T05:22:10;95134.72;;;1.52;100.00
52923;BME280;38796;42.702;23.306;2022-12-08T05:24:08;95141.69;;;1.52;100.00
52923;BME280;38796;42.702;23.306;2022-12-08T05:26:06;95149.63;;;1.49;100.00
52923;BME280;38796;42.702;23.306;2022-12-08T05:28:05;95147.09;;;1.47;100.00
52923;BME280;38796;42.702;23.306;2022-12-08T05:30:24;95143.94;;;1.42;100.00
52923;BME280;38796;42.702;23.306;2022-12-08T05:32:22;95146.09;;;1.34;100.00
52923;BME280;38796;42.702;23.306;2022-12-08T05:34:20;95144.41;;;1.33;100.00
52923;BME280;38796;42.702;23.306;2022-12-08T05:36:18;95147.16;;;1.30;100.00
52923;BME280;38796;42.702;23.306;2022-12-08T05:38:16;95147.41;;;1.25;100.00
52923;BME280;38796;42.702;23.306;2022-12-08T05:40:14;95154.66;;;1.18;100.00
52923;BME280;38796;42.702;23.306;2022-12-08T05:42:12;95152.59;;;1.25;100.00
52923;BME280;38796;42.702;23.306;2022-12-08T05:44:13;95155.88;;;1.29;100.00
52923;BME280;38796;42.702;23.306;2022-12-08T05:46:13;95151.28;;;1.34;100.00
52923;BME280;38796;42.702;23.306;2022-12-08T05:48:11;95155.56;;;1.35;100.00
52923;BME280;38796;42.702;23.306;2022-12-08T05:50:10;95155.19;;;1.25;100.00
52923;BME280;38796;42.702;23.306;2022-12-08T05:52:08;95151.41;;;1.15;100.00
52923;BME280;38796;42.702;23.306;2022-12-08T05:54:06;95152.00;;;1.20;100.00
52923;BME280;38796;42.702;23.306;2022-12-08T05:56:04;95155.75;;;1.14;100.00
52923;BME280;38796;42.702;23.306;2022-12-08T05:58:02;95155.84;;;1.13;100.00
52923;BME280;38796;42.702;23.306;2022-12-08T06:00:04;95153.25;;;1.13;100.00
52923;BME280;38796;42.702;23.306;2022-12-08T06:02:08;95161.88;;;1.13;100.00
52923;BME280;38796;42.702;23.306;2022-12-08T06:04:07;95165.59;;;1.08;100.00
52923;BME280;38796;42.702;23.306;2022-12-08T06:06:05;95176.91;;;1.07;100.00
52923;BME280;38796;42.702;23.306;2022-12-08T06:08:03;95174.16;;;1.10;100.00
52923;BME280;38796;42.702;23.306;2022-12-08T06:10:02;95172.09;;;1.16;100.00
52923;BME280;38796;42.702;23.306;2022-12-08T06:12:00;95172.09;;;1.16;100.00
52923;BME280;38796;42.702;23.306;2022-12-08T06:13:59;95171.94;;;1.19;100.00
52923;BME280;38796;42.702;23.306;2022-12-08T06:16:02;95169.16;;;1.23;100.00
52923;BME280;38796;42.702;23.306;2022-12-08T06:18:01;95171.53;;;1.27;100.00
52923;BME280;38796;42.702;23.306;2022-12-08T06:19:59;95180.50;;;1.37;100.00
52923;BME280;38796;42.702;23.306;2022-12-08T06:21:58;95170.97;;;1.54;100.00
52923;BME280;38796;42.702;23.306;2022-12-08T06:23:56;95176.41;;;1.65;100.00
52923;BME280;38796;42.702;23.306;2022-12-08T06:25:54;95178.69;;;1.71;100.00
52923;BME280;38796;42.702;23.306;2022-12-08T06:27:56;95182.28;;;1.84;100.00
52923;BME280;38796;42.702;23.306;2022-12-08T06:29:54;95189.72;;;1.90;100.00
52923;BME280;38796;42.702;23.306;2022-12-08T06:31:53;95180.34;;;2.04;100.00
52923;BME280;38796;42.702;23.306;2022-12-08T06:33:53;95181.00;;;2.23;100.00
52923;BME280;38796;42.702;23.306;2022-12-08T06:35:51;95180.31;;;2.35;100.00
52923;BME280;38796;42.702;23.306;2022-12-08T06:37:49;95175.59;;;2.42;100.00
52923;BME280;38796;42.702;23.306;2022-12-08T06:39:47;95178.31;;;2.55;100.00
52923;BME280;38796;42.702;23.306;2022-12-08T06:41:45;95170.03;;;2.78;100.00
52923;BME280;38796;42.702;23.306;2022-12-08T06:44:01;95161.41;;;3.06;100.00
52923;BME280;38796;42.702;23.306;2022-12-08T06:45:59;95170.63;;;3.12;100.00
52923;BME280;38796;42.702;23.306;2022-12-08T06:47:57;95162.56;;;3.31;100.00
52923;BME280;38796;42.702;23.306;2022-12-08T06:49:57;95169.34;;;3.48;100.00
52923;BME280;38796;42.702;23.306;2022-12-08T06:51:54;95172.88;;;3.61;100.00
52923;BME280;38796;42.702;23.306;2022-12-08T06:53:53;95163.66;;;3.70;100.00
52923;BME280;38796;42.702;23.306;2022-12-08T06:55:51;95165.31;;;3.71;100.00
52923;BME280;38796;42.702;23.306;2022-12-08T06:57:57;95169.41;;;3.60;100.00
52923;BME280;38796;42.702;23.306;2022-12-08T06:59:55;95161.25;;;3.52;100.00
52923;BME280;38796;42.702;23.306;2022-12-08T07:01:53;95164.03;;;3.49;100.00
52923;BME280;38796;42.702;23.306;2022-12-08T07:03:51;95175.38;;;3.48;100.00
52923;BME280;38796;42.702;23.306;2022-12-08T07:05:54;95179.94;;;3.30;100.00
52923;BME280;38796;42.702;23.306;2022-12-08T07:07:59;95185.59;;;3.23;100.00
52923;BME280;38796;42.702;23.306;2022-12-08T07:09:57;95194.25;;;3.23;100.00
52923;BME280;38796;42.702;23.306;2022-12-08T07:11:55;95190.63;;;3.26;100.00
52923;BME280;38796;42.702;23.306;2022-12-08T07:13:54;95195.56;;;3.30;100.00
52923;BME280;38796;42.702;23.306;2022-12-08T07:15:52;95199.09;;;3.29;100.00
52923;BME280;38796;42.702;23.306;2022-12-08T07:17:50;95193.31;;;3.24;100.00
52923;BME280;38796;42.702;23.306;2022-12-08T07:19:55;95195.91;;;3.53;100.00
52923;BME280;38796;42.702;23.306;2022-12-08T07:21:54;95197.50;;;3.55;100.00
52923;BME280;38796;42.702;23.306;2022-12-08T07:23:53;95195.38;;;3.62;100.00
52923;BME280;38796;42.702;23.306;2022-12-08T07:25:53;95198.59;;;3.80;100.00
52923;BME280;38796;42.702;23.306;2022-12-08T07:27:51;95207.16;;;3.82;100.00
52923;BME280;38796;42.702;23.306;2022-12-08T07:29:49;95201.28;;;3.93;100.00
52923;BME280;38796;42.702;23.306;2022-12-08T07:31:47;95210.50;;;3.84;100.00
52923;BME280;38796;42.702;23.306;2022-12-08T07:33:46;95207.78;;;3.85;100.00
52923;BME280;38796;42.702;23.306;2022-12-08T07:35:52;95213.88;;;3.86;100.00
52923;BME280;38796;42.702;23.306;2022-12-08T07:37:51;95212.00;;;3.88;100.00
52923;BME280;38796;42.702;23.306;2022-12-08T07:39:49;95209.88;;;4.07;100.00
52923;BME280;38796;42.702;23.306;2022-12-08T07:41:48;95205.78;;;4.18;100.00
52923;BME280;38796;42.702;23.306;2022-12-08T07:43:46;95210.09;;;4.19;100.00
52923;BME280;38796;42.702;23.306;2022-12-08T07:45:44;95207.50;;;4.31;100.00
52923;BME280;38796;42.702;23.306;2022-12-08T07:47:42;95203.19;;;4.45;100.00
52923;BME280;38796;42.702;23.306;2022-12-08T07:49:40;95207.91;;;4.52;100.00
52923;BME280;38796;42.702;23.306;2022-12-08T07:51:38;95202.72;;;4.65;100.00
52923;BME280;38796;42.702;23.306;2022-12-08T07:53:38;95211.41;;;4.78;100.00
52923;BME280;38796;42.702;23.306;2022-12-08T07:55:38;95203.44;;;4.94;98.97
52923;BME280;38796;42.702;23.306;2022-12-08T07:57:37;95204.28;;;4.95;98.51
52923;BME280;38796;42.702;23.306;2022-12-08T07:59:35;95205.09;;;5.08;97.65
52923;BME280;38796;42.702;23.306;2022-12-08T08:01:33;95202.91;;;5.15;97.41
52923;BME280;38796;42.702;23.306;2022-12-08T08:03:31;95198.66;;;5.39;96.31
52923;BME280;38796;42.702;23.306;2022-12-08T08:05:30;95198.44;;;5.42;95.89
52923;BME280;38796;42.702;23.306;2022-12-08T08:07:29;95196.34;;;5.47;95.62
52923;BME280;38796;42.702;23.306;2022-12-08T08:09:28;95196.56;;;5.70;95.19
52923;BME280;38796;42.702;23.306;2022-12-08T08:11:26;95204.66;;;5.91;93.65
52923;BME280;38796;42.702;23.306;2022-12-08T08:13:24;95201.91;;;6.18;92.32
52923;BME280;38796;42.702;23.306;2022-12-08T08:15:22;95208.78;;;6.56;89.95
52923;BME280;38796;42.702;23.306;2022-12-08T08:17:21;95200.88;;;6.92;89.41
52923;BME280;38796;42.702;23.306;2022-12-08T08:19:19;95200.59;;;7.31;86.45
52923;BME280;38796;42.702;23.306;2022-12-08T08:21:17;95203.75;;;7.58;84.37
52923;BME280;38796;42.702;23.306;2022-12-08T08:23:35;95205.16;;;8.07;81.31
52923;BME280;38796;42.702;23.306;2022-12-08T08:25:35;95199.31;;;7.92;81.09
52923;BME280;38796;42.702;23.306;2022-12-08T08:27:33;95206.34;;;7.92;80.84
52923;BME280;38796;42.702;23.306;2022-12-08T08:29:31;95208.53;;;7.87;81.05
52923;BME280;38796;42.702;23.306;2022-12-08T08:31:29;95214.00;;;7.73;81.94
52923;BME280;38796;42.702;23.306;2022-12-08T08:33:27;95204.22;;;8.08;80.80
52923;BME280;38796;42.702;23.306;2022-12-08T08:35:25;95194.88;;;8.49;79.25
52923;BME280;38796;42.702;23.306;2022-12-08T08:37:23;95196.16;;;8.87;77.44
52923;BME280;38796;42.702;23.306;2022-12-08T08:39:21;95203.25;;;9.07;76.33
52923;BME280;38796;42.702;23.306;2022-12-08T08:41:20;95198.00;;;9.49;74.87
52923;BME280;38796;42.702;23.306;2022-12-08T08:43:18;95200.91;;;10.48;70.58
52923;BME280;38796;42.702;23.306;2022-12-08T08:45:34;95193.25;;;11.71;66.76
52923;BME280;38796;42.702;23.306;2022-12-08T08:47:32;95189.72;;;12.55;61.90
52923;BME280;38796;42.702;23.306;2022-12-08T08:49:30;95180.44;;;13.58;59.29
52923;BME280;38796;42.702;23.306;2022-12-08T08:51:28;95190.41;;;14.24;57.24
52923;BME280;38796;42.702;23.306;2022-12-08T08:53:26;95186.47;;;14.71;54.75
52923;BME280;38796;42.702;23.306;2022-12-08T08:55:24;95170.16;;;15.16;53.96
52923;BME280;38796;42.702;23.306;2022-12-08T08:57:23;95175.47;;;15.16;53.61
52923;BME280;38796;42.702;23.306;2022-12-08T08:59:21;95187.41;;;15.45;52.43
52923;BME280;38796;42.702;23.306;2022-12-08T09:01:21;95175.47;;;15.08;52.97
52923;BME280;38796;42.702;23.306;2022-12-08T09:03:19;95175.69;;;14.64;53.78
52923;BME280;38796;42.702;23.306;2022-12-08T09:05:17;95173.56;;;13.99;55.38
52923;BME280;38796;42.702;23.306;2022-12-08T09:07:15;95169.59;;;13.43;57.34
52923;BME280;38796;42.702;23.306;2022-12-08T09:09:13;95167.84;;;13.16;57.74
52923;BME280;38796;42.702;23.306;2022-12-08T09:11:12;95171.59;;;12.42;59.78
52923;BME280;38796;42.702;23.306;2022-12-08T09:13:11;95169.25;;;11.64;62.48
52923;BME280;38796;42.702;23.306;2022-12-08T09:15:09;95174.75;;;10.85;65.10
52923;BME280;38796;42.702;23.306;2022-12-08T09:17:07;95168.53;;;10.76;65.84
52923;BME280;38796;42.702;23.306;2022-12-08T09:19:05;95157.13;;;11.34;64.59
52923;BME280;38796;42.702;23.306;2022-12-08T09:21:04;95156.22;;;11.63;63.45
52923;BME280;38796;42.702;23.306;2022-12-08T09:23:02;95157.28;;;12.17;61.88
52923;BME280;38796;42.702;23.306;2022-12-08T09:25:00;95157.50;;;11.96;62.91
52923;BME280;38796;42.702;23.306;2022-12-08T09:26:58;95162.25;;;11.83;62.30
52923;BME280;38796;42.702;23.306;2022-12-08T09:28:57;95155.56;;;11.51;63.28
52923;BME280;38796;42.702;23.306;2022-12-08T09:30:56;95155.00;;;11.47;64.06
52923;BME280;38796;42.702;23.306;2022-12-08T09:32:54;95157.31;;;11.70;64.08
52923;BME280;38796;42.702;23.306;2022-12-08T09:34:52;95150.94;;;12.37;61.36
52923;BME280;38796;42.702;23.306;2022-12-08T09:36:50;95144.75;;;12.82;59.90
52923;BME280;38796;42.702;23.306;2022-12-08T09:38:48;95145.53;;;13.28;58.01
52923;BME280;38796;42.702;23.306;2022-12-08T09:40:49;95144.94;;;12.98;58.26
52923;BME280;38796;42.702;23.306;2022-12-08T09:42:49;95150.22;;;12.63;59.89
52923;BME280;38796;42.702;23.306;2022-12-08T09:44:51;95142.53;;;12.24;60.41
52923;BME280;38796;42.702;23.306;2022-12-08T09:46:53;95143.72;;;12.12;62.03
52923;BME280;38796;42.702;23.306;2022-12-08T09:48:53;95142.19;;;12.90;59.75
52923;BME280;38796;42.702;23.306;2022-12-08T09:50:53;95135.94;;;13.53;57.54
52923;BME280;38796;42.702;23.306;2022-12-08T09:52:55;95131.72;;;13.68;56.80
52923;BME280;38796;42.702;23.306;2022-12-08T09:54:55;95124.78;;;13.41;57.33
52923;BME280;38796;42.702;23.306;2022-12-08T09:56:55;95125.88;;;13.13;58.00
52923;BME280;38796;42.702;23.306;2022-12-08T09:58:56;95109.44;;;12.65;59.78
52923;BME280;38796;42.702;23.306;2022-12-08T10:00:56;95111.88;;;12.59;60.52
52923;BME280;38796;42.702;23.306;2022-12-08T10:02:54;95113.94;;;13.09;58.62
52923;BME280;38796;42.702;23.306;2022-12-08T10:04:53;95112.53;;;12.96;58.78
52923;BME280;38796;42.702;23.306;2022-12-08T10:06:55;95104.44;;;12.80;59.77
52923;BME280;38796;42.702;23.306;2022-12-08T10:08:57;95103.16;;;13.46;57.93
52923;BME280;38796;42.702;23.306;2022-12-08T10:10:58;95103.00;;;14.16;55.77
52923;BME280;38796;42.702;23.306;2022-12-08T10:13:02;95100.53;;;14.73;54.44
52923;BME280;38796;42.702;23.306;2022-12-08T10:15:07;95107.09;;;15.75;51.89
52923;BME280;38796;42.702;23.306;2022-12-08T10:17:14;95097.09;;;16.02;50.58
52923;BME280;38796;42.702;23.306;2022-12-08T10:19:14;95087.94;;;15.24;51.51
52923;BME280;38796;42.702;23.306;2022-12-08T10:21:15;95092.75;;;14.96;52.48
52923;BME280;38796;42.702;23.306;2022-12-08T10:23:18;95081.81;;;14.83;53.14
52923;BME280;38796;42.702;23.306;2022-12-08T10:25:18;95096.84;;;14.50;53.81
52923;BME280;38796;42.702;23.306;2022-12-08T10:27:17;95091.38;;;14.09;55.32
52923;BME280;38796;42.702;23.306;2022-12-08T10:29:16;95082.28;;;14.03;55.43